createdAt,value
2019-01-19T00:01:23.828Z,8.40
2019-01-19T00:04:17.774Z,6.57
2019-01-19T00:07:11.395Z,8.00
2019-01-19T00:09:51.948Z,6.60
2019-01-19T00:12:23.583Z,7.03
2019-01-19T00:14:52.872Z,9.30
2019-01-19T00:17:30.254Z,9.83
2019-01-19T00:20:27.409Z,8.37
2019-01-19T00:23:23.071Z,7.10
2019-01-19T00:26:15.732Z,7.00
2019-01-19T00:28:47.340Z,6.80
2019-01-19T00:31:21.798Z,8.20
2019-01-19T00:33:59.260Z,7.13
2019-01-19T00:36:33.425Z,6.37
2019-01-19T00:39:20.448Z,7.43
2019-01-19T00:42:06.649Z,8.53
2019-01-19T00:45:12.813Z,6.00
2019-01-19T00:47:50.341Z,6.83
2019-01-19T00:50:44.174Z,9.10
2019-01-19T00:53:15.730Z,6.57
2019-01-19T00:55:52.829Z,7.63
2019-01-19T00:58:24.454Z,7.13
2019-01-19T01:00:56.090Z,7.97
2019-01-19T01:03:35.829Z,6.47
2019-01-19T01:06:31.449Z,6.57
2019-01-19T01:09:14.796Z,6.70
2019-01-19T01:14:21.590Z,7.53
2019-01-19T01:17:02.515Z,7.77
2019-01-19T01:19:43.484Z,8.47
2019-01-19T01:22:24.498Z,7.03
2019-01-19T01:25:05.447Z,10.40
2019-01-19T01:27:45.923Z,7.53
2019-01-19T01:30:26.401Z,7.47
2019-01-19T01:33:07.039Z,8.53
2019-01-19T01:35:48.118Z,7.93
2019-01-19T01:38:29.337Z,7.10
2019-01-19T01:41:10.206Z,8.17
2019-01-19T01:43:50.689Z,9.00
2019-01-19T01:46:31.498Z,7.83
2019-01-19T01:49:12.202Z,9.17
2019-01-19T01:51:53.011Z,9.53
2019-01-19T01:54:33.614Z,10.17
2019-01-19T01:57:14.382Z,6.47
2019-01-19T01:59:55.114Z,6.50
2019-01-19T02:02:35.866Z,8.27
2019-01-19T02:05:16.306Z,9.80
2019-01-19T02:07:56.842Z,8.07
2019-01-19T02:10:37.277Z,9.87
2019-01-19T02:13:18.232Z,7.90
2019-01-19T02:15:59.546Z,7.83
2019-01-19T02:18:40.213Z,7.77
2019-01-19T02:21:20.906Z,7.87
2019-01-19T02:24:01.885Z,9.43
2019-01-19T02:26:43.395Z,8.03
2019-01-19T02:29:24.199Z,9.10
2019-01-19T02:32:04.833Z,7.83
2019-01-19T02:34:45.594Z,8.17
2019-01-19T02:37:26.351Z,8.17
2019-01-19T02:40:06.703Z,7.23
2019-01-19T02:42:47.202Z,8.67
2019-01-19T02:45:28.211Z,7.17
2019-01-19T02:48:08.870Z,7.53
2019-01-19T02:51:17.475Z,6.23
2019-01-19T02:54:24.706Z,6.87
2019-01-19T02:57:31.947Z,6.67
2019-01-19T03:00:39.158Z,8.43
2019-01-19T03:03:30.262Z,7.70
2019-01-19T03:06:37.475Z,6.20
2019-01-19T03:09:44.707Z,7.53
2019-01-19T03:12:51.939Z,6.07
2019-01-19T03:15:59.291Z,7.03
2019-01-19T03:19:06.526Z,6.90
2019-01-19T03:22:15.131Z,7.23
2019-01-19T03:25:22.362Z,5.77
2019-01-19T03:28:30.998Z,9.17
2019-01-19T03:31:38.206Z,6.13
2019-01-19T03:34:45.432Z,7.33
2019-01-19T03:37:54.077Z,8.03
2019-01-19T03:41:02.692Z,6.33
2019-01-19T03:44:09.918Z,6.80
2019-01-19T03:47:18.455Z,8.37
2019-01-19T03:50:25.686Z,6.37
2019-01-19T03:53:33.084Z,7.80
2019-01-19T03:56:41.695Z,8.17
2019-01-19T03:59:48.941Z,6.60
2019-01-19T04:02:56.141Z,7.97
2019-01-19T04:08:44.739Z,5.67
2019-01-19T04:11:25.376Z,6.13
2019-01-19T04:14:05.833Z,5.97
2019-01-19T04:16:46.976Z,6.33
2019-01-19T04:19:27.642Z,6.60
2019-01-19T04:22:08.648Z,6.97
2019-01-19T04:24:49.726Z,8.93
2019-01-19T04:27:30.575Z,7.33
2019-01-19T04:30:11.339Z,7.30
2019-01-19T04:32:52.187Z,6.43
2019-01-19T04:35:33.067Z,6.67
2019-01-19T04:38:13.805Z,7.77
2019-01-19T04:40:54.522Z,7.77
2019-01-19T04:43:35.201Z,9.40
2019-01-19T04:46:16.093Z,7.77
2019-01-19T04:48:56.689Z,8.87
2019-01-19T04:51:37.639Z,7.70
2019-01-19T04:54:18.576Z,6.03
2019-01-19T04:56:59.279Z,8.03
2019-01-19T04:59:40.103Z,8.53
2019-01-19T05:02:20.795Z,6.10
2019-01-19T05:05:01.518Z,6.07
2019-01-19T05:07:42.361Z,6.60
2019-01-19T05:10:22.852Z,6.30
2019-01-19T05:13:03.677Z,7.33
2019-01-19T05:15:44.319Z,6.57
2019-01-19T05:18:25.150Z,7.57
2019-01-19T05:21:05.792Z,4.80
2019-01-19T05:23:46.242Z,8.77
2019-01-19T05:26:27.093Z,9.10
2019-01-19T05:29:07.927Z,6.87
2019-01-19T05:31:48.995Z,6.97
2019-01-19T05:34:30.050Z,9.90
2019-01-19T05:37:10.728Z,7.77
2019-01-19T05:39:51.379Z,6.17
2019-01-19T05:42:32.088Z,7.27
2019-01-19T05:45:13.183Z,7.40
2019-01-19T05:47:54.042Z,6.63
2019-01-19T05:50:34.614Z,8.20
2019-01-19T05:56:34.559Z,7.07
2019-01-19T05:59:15.123Z,8.60
2019-01-19T06:01:55.636Z,6.70
2019-01-19T06:04:36.159Z,7.47
2019-01-19T06:07:17.209Z,7.57
2019-01-19T06:09:57.736Z,7.53
2019-01-19T06:12:38.751Z,7.43
2019-01-19T06:15:19.579Z,7.00
2019-01-19T06:18:00.277Z,7.77
2019-01-19T06:20:40.691Z,9.10
2019-01-19T06:23:21.225Z,7.37
2019-01-19T06:26:01.853Z,6.80
2019-01-19T06:28:42.958Z,6.80
2019-01-19T06:31:23.636Z,8.77
2019-01-19T06:34:04.433Z,8.60
2019-01-19T06:36:45.184Z,8.63
2019-01-19T06:39:25.781Z,7.63
2019-01-19T06:45:14.655Z,8.07
2019-01-19T06:47:55.275Z,7.40
2019-01-19T06:53:25.198Z,6.07
2019-01-19T06:56:06.094Z,6.93
2019-01-19T06:58:46.754Z,8.10
2019-01-19T07:01:27.163Z,8.63
2019-01-19T07:04:07.704Z,8.23
2019-01-19T07:06:48.271Z,8.70
2019-01-19T07:12:48.778Z,8.00
2019-01-19T07:15:29.501Z,10.53
2019-01-19T07:18:10.107Z,9.70
2019-01-19T07:20:51.256Z,6.83
2019-01-19T07:23:31.756Z,10.47
2019-01-19T07:26:12.627Z,10.33
2019-01-19T07:28:53.375Z,11.13
2019-01-19T07:31:34.254Z,27.70
2019-01-19T07:34:14.754Z,24.33
2019-01-19T07:36:55.453Z,17.00
2019-01-19T07:39:36.119Z,8.47
2019-01-19T07:42:17.033Z,8.13
2019-01-19T07:44:58.081Z,9.27
2019-01-19T07:47:39.406Z,10.10
2019-01-19T07:50:20.115Z,9.10
2019-01-19T07:53:01.107Z,8.20
2019-01-19T07:55:41.818Z,10.70
2019-01-19T07:58:22.513Z,11.47
2019-01-19T08:01:03.320Z,6.30
2019-01-19T08:03:44.150Z,8.47
2019-01-19T08:06:25.390Z,6.13
2019-01-19T08:09:06.192Z,9.10
2019-01-19T08:11:46.792Z,9.73
2019-01-19T08:14:27.515Z,6.87
2019-01-19T08:17:09.446Z,6.23
2019-01-19T08:19:49.950Z,7.30
2019-01-19T08:22:30.486Z,6.80
2019-01-19T08:25:10.985Z,8.37
2019-01-19T08:27:51.503Z,7.00
2019-01-19T08:30:32.012Z,8.47
2019-01-19T08:33:13.315Z,6.47
2019-01-19T08:35:54.409Z,6.33
2019-01-19T08:38:35.103Z,5.73
2019-01-19T08:41:15.775Z,6.17
2019-01-19T08:43:56.524Z,6.07
2019-01-19T08:46:37.443Z,7.10
2019-01-19T08:49:18.156Z,6.77
2019-01-19T08:51:58.890Z,8.03
2019-01-19T08:54:39.490Z,9.53
2019-01-19T08:57:20.440Z,8.13
2019-01-19T09:00:01.584Z,7.77
2019-01-19T09:02:42.171Z,6.97
2019-01-19T09:05:22.710Z,5.93
2019-01-19T09:08:03.335Z,8.13
2019-01-19T09:10:44.243Z,8.60
2019-01-19T09:13:25.090Z,6.43
2019-01-19T09:16:06.111Z,7.33
2019-01-19T09:18:46.542Z,5.70
2019-01-19T09:21:27.675Z,8.67
2019-01-19T09:24:08.994Z,7.80
2019-01-19T09:26:49.384Z,7.37
2019-01-19T09:29:29.931Z,6.17
2019-01-19T09:32:10.735Z,7.63
2019-01-19T09:34:51.230Z,7.50
2019-01-19T09:37:32.183Z,6.23
2019-01-19T09:40:12.745Z,7.73
2019-01-19T09:42:53.560Z,7.73
2019-01-19T09:45:34.340Z,6.77
2019-01-19T09:48:15.255Z,7.47
2019-01-19T09:50:55.854Z,5.43
2019-01-19T09:53:36.648Z,4.83
2019-01-19T09:56:18.604Z,7.90
2019-01-19T10:02:07.425Z,4.33
2019-01-19T10:04:48.328Z,5.47
2019-01-19T10:07:29.323Z,5.53
2019-01-19T10:10:09.991Z,5.60
2019-01-19T10:12:50.510Z,5.73
2019-01-19T10:15:31.774Z,5.63
2019-01-19T10:18:12.958Z,4.27
2019-01-19T10:20:53.431Z,3.77
2019-01-19T10:23:34.129Z,2.97
2019-01-19T10:26:14.682Z,4.37
2019-01-19T10:28:55.443Z,5.00
2019-01-19T10:31:36.703Z,4.33
2019-01-19T10:34:17.535Z,3.67
2019-01-19T10:36:58.232Z,5.07
2019-01-19T10:39:38.947Z,5.97
2019-01-19T10:42:20.016Z,8.13
2019-01-19T10:45:00.787Z,4.60
2019-01-19T10:47:41.419Z,4.83
2019-01-19T10:50:22.567Z,4.67
2019-01-19T10:53:03.162Z,12.57
2019-01-19T10:59:03.463Z,10.10
2019-01-19T11:01:44.030Z,10.17
2019-01-19T11:04:24.724Z,4.80
2019-01-19T11:07:05.270Z,3.27
2019-01-19T11:09:46.248Z,4.73
2019-01-19T11:12:26.991Z,3.37
2019-01-19T11:15:07.918Z,4.13
2019-01-19T11:17:48.745Z,3.03
2019-01-19T11:20:29.542Z,2.53
2019-01-19T11:23:10.294Z,2.77
2019-01-19T11:25:51.243Z,4.70
2019-01-19T11:28:31.984Z,3.50
2019-01-19T11:31:12.979Z,3.70
2019-01-19T11:33:53.799Z,2.10
2019-01-19T11:36:34.372Z,4.07
2019-01-19T11:39:14.963Z,2.60
2019-01-19T11:41:55.575Z,5.07
2019-01-19T11:44:35.951Z,2.13
2019-01-19T11:47:16.666Z,2.13
2019-01-19T11:49:57.554Z,3.13
2019-01-19T11:52:38.055Z,4.80
2019-01-19T11:55:19.248Z,3.40
2019-01-19T11:57:59.655Z,3.60
2019-01-19T12:00:40.566Z,3.80
2019-01-19T12:03:21.163Z,7.33
2019-01-19T12:06:02.432Z,4.40
2019-01-19T12:08:43.435Z,2.10
2019-01-19T12:11:24.067Z,1.70
2019-01-19T12:14:05.053Z,3.07
2019-01-19T12:16:45.498Z,3.57
2019-01-19T12:19:26.158Z,1.63
2019-01-19T12:22:06.539Z,4.67
2019-01-19T12:24:47.090Z,1.30
2019-01-19T12:27:27.964Z,3.63
2019-01-19T12:30:08.912Z,4.47
2019-01-19T12:32:49.804Z,4.70
2019-01-19T12:35:30.322Z,2.80
2019-01-19T12:38:11.012Z,2.63
2019-01-19T12:43:56.586Z,1.80
2019-01-19T12:46:36.888Z,4.20
2019-01-19T12:49:17.774Z,2.57
2019-01-19T12:51:58.399Z,3.13
2019-01-19T12:54:38.777Z,3.07
2019-01-19T12:57:19.283Z,3.33
2019-01-19T13:00:00.187Z,3.10
2019-01-19T13:02:40.680Z,2.97
2019-01-19T13:05:21.357Z,3.57
2019-01-19T13:07:49.969Z,4.87
2019-01-19T13:10:58.591Z,3.67
2019-01-19T13:13:47.055Z,4.53
2019-01-19T13:16:54.279Z,2.73
2019-01-19T13:20:02.911Z,1.63
2019-01-19T13:23:10.406Z,2.10
2019-01-19T13:26:17.630Z,2.73
2019-01-19T13:29:24.835Z,3.60
2019-01-19T13:32:32.110Z,2.13
2019-01-19T13:35:40.703Z,2.50
2019-01-19T13:38:49.307Z,1.67
2019-01-19T13:41:56.534Z,2.73
2019-01-19T13:45:03.762Z,5.13
2019-01-19T13:48:10.963Z,3.57
2019-01-19T13:51:18.182Z,2.87
2019-01-19T13:54:25.394Z,2.80
2019-01-19T13:57:32.629Z,4.20
2019-01-19T14:00:39.891Z,3.90
2019-01-19T14:03:48.467Z,3.07
2019-01-19T14:06:29.789Z,4.27
2019-01-19T14:09:10.503Z,3.47
2019-01-19T14:11:51.246Z,2.80
2019-01-19T14:14:32.031Z,4.80
2019-01-19T14:17:12.835Z,2.00
2019-01-19T14:19:53.851Z,3.60
2019-01-19T14:22:34.799Z,3.00
2019-01-19T14:25:15.547Z,4.37
2019-01-19T14:27:56.767Z,3.60
2019-01-19T14:30:37.408Z,1.90
2019-01-19T14:33:17.743Z,2.90
2019-01-19T14:35:58.371Z,3.00
2019-01-19T14:38:39.143Z,3.07
2019-01-19T14:41:20.205Z,2.20
2019-01-19T14:44:00.921Z,3.87
2019-01-19T14:46:41.595Z,2.73
2019-01-19T14:49:22.231Z,4.70
2019-01-19T14:52:02.971Z,5.47
2019-01-19T14:54:43.504Z,2.70
2019-01-19T14:57:24.079Z,4.50
2019-01-19T15:00:04.797Z,5.63
2019-01-19T15:02:45.376Z,4.10
2019-01-19T15:05:26.210Z,4.70
2019-01-19T15:08:06.974Z,3.20
2019-01-19T15:10:47.427Z,5.40
2019-01-19T15:13:28.318Z,7.17
2019-01-19T15:16:08.859Z,3.97
2019-01-19T15:18:49.749Z,2.57
2019-01-19T15:21:30.170Z,2.80
2019-01-19T15:24:37.411Z,3.60
2019-01-19T15:27:44.643Z,4.93
2019-01-19T15:30:53.426Z,2.93
2019-01-19T15:34:00.728Z,2.33
2019-01-19T15:37:09.331Z,5.33
2019-01-19T15:40:16.572Z,3.07
2019-01-19T15:43:25.213Z,8.07
2019-01-19T15:46:32.424Z,9.47
2019-01-19T15:49:39.652Z,7.27
2019-01-19T15:52:46.882Z,6.70
2019-01-19T15:55:55.504Z,5.63
2019-01-19T15:59:02.729Z,5.07
2019-01-19T16:02:09.934Z,6.80
2019-01-19T16:04:50.418Z,4.00
2019-01-19T16:07:31.270Z,4.87
2019-01-19T16:10:12.016Z,6.20
2019-01-19T16:12:52.719Z,4.40
2019-01-19T16:15:33.795Z,6.73
2019-01-19T16:18:14.459Z,3.80
2019-01-19T16:20:55.475Z,3.50
2019-01-19T16:23:36.459Z,3.43
2019-01-19T16:26:17.087Z,4.23
2019-01-19T16:32:08.041Z,5.43
2019-01-19T16:34:48.167Z,4.17
2019-01-19T16:37:29.179Z,4.50
2019-01-19T16:40:09.953Z,4.67
2019-01-19T16:42:50.708Z,5.27
2019-01-19T16:45:31.835Z,4.10
2019-01-19T16:48:12.866Z,3.63
2019-01-19T16:50:53.800Z,5.37
2019-01-19T16:53:34.147Z,6.10
2019-01-19T16:56:14.936Z,6.30
2019-01-19T17:05:09.220Z,4.87
2019-01-19T17:07:50.058Z,3.97
2019-01-19T17:10:30.703Z,5.33
2019-01-19T17:13:11.953Z,6.80
2019-01-19T17:15:52.523Z,5.63
2019-01-19T17:18:33.487Z,7.80
2019-01-19T17:21:14.459Z,5.67
2019-01-19T17:23:55.319Z,6.20
2019-01-19T17:26:35.935Z,5.60
2019-01-19T17:29:16.549Z,6.93
2019-01-19T17:31:57.420Z,5.17
2019-01-19T17:34:38.058Z,4.80
2019-01-19T17:37:19.027Z,6.17
2019-01-19T17:40:00.018Z,5.10
2019-01-19T17:42:40.965Z,6.33
2019-01-19T17:45:21.406Z,4.87
2019-01-19T17:48:02.067Z,6.87
2019-01-19T17:50:42.451Z,5.73
2019-01-19T17:53:23.455Z,6.33
2019-01-19T17:56:04.227Z,7.50
2019-01-19T17:58:45.071Z,5.83
2019-01-19T18:01:25.840Z,5.87
2019-01-19T18:04:06.390Z,6.07
2019-01-19T18:06:46.909Z,6.20
2019-01-19T18:09:27.383Z,7.83
2019-01-19T18:12:07.827Z,9.97
2019-01-19T18:14:48.672Z,8.00
2019-01-19T18:20:38.034Z,7.40
2019-01-19T18:23:18.784Z,7.70
2019-01-19T18:25:59.609Z,8.00
2019-01-19T18:28:40.376Z,10.30
2019-01-19T18:31:21.239Z,10.60
2019-01-19T18:34:01.839Z,12.03
2019-01-19T18:36:42.484Z,8.67
2019-01-19T18:39:23.375Z,12.90
2019-01-19T18:42:04.124Z,15.53
2019-01-19T18:44:44.947Z,12.53
2019-01-19T18:47:25.664Z,13.20
2019-01-19T18:50:06.488Z,7.33
2019-01-19T18:52:47.238Z,10.23
2019-01-19T18:55:28.131Z,5.97
2019-01-19T18:58:09.050Z,5.30
2019-01-19T19:00:49.647Z,6.33
2019-01-19T19:03:30.427Z,4.90
2019-01-19T19:06:11.710Z,6.13
2019-01-19T19:09:19.249Z,5.67
2019-01-19T19:12:26.450Z,5.83
2019-01-19T19:15:33.660Z,5.57
2019-01-19T19:18:40.887Z,7.13
2019-01-19T19:21:48.159Z,6.73
2019-01-19T19:24:55.371Z,6.20
2019-01-19T19:28:02.603Z,5.43
2019-01-19T19:31:11.216Z,5.33
2019-01-19T19:34:18.443Z,4.50
2019-01-19T19:37:25.675Z,5.70
2019-01-19T19:40:34.315Z,5.47
2019-01-19T19:43:43.134Z,5.90
2019-01-19T19:46:50.335Z,6.97
2019-01-19T19:49:59.183Z,10.50
2019-01-19T19:52:47.321Z,11.07
2019-01-19T19:55:34.619Z,8.50
2019-01-19T19:58:22.527Z,7.90
2019-01-19T20:01:10.678Z,6.57
2019-01-19T20:03:58.868Z,10.20
2019-01-19T20:06:39.855Z,6.50
2019-01-19T20:09:20.818Z,8.97
2019-01-19T20:12:02.413Z,6.73
2019-01-19T20:14:43.295Z,7.97
2019-01-19T20:17:23.821Z,5.63
2019-01-19T20:20:04.307Z,8.13
2019-01-19T20:22:45.116Z,7.27
2019-01-19T20:25:26.573Z,6.03
2019-01-19T20:28:07.144Z,6.03
2019-01-19T20:30:48.521Z,8.53
2019-01-19T20:33:29.008Z,6.57
2019-01-19T20:36:09.666Z,9.70
2019-01-19T20:38:38.228Z,8.77
2019-01-19T20:41:26.110Z,7.83
2019-01-19T20:44:14.021Z,9.17
2019-01-19T20:47:01.975Z,9.47
2019-01-19T20:49:49.876Z,7.57
2019-01-19T20:52:37.817Z,6.27
2019-01-19T20:55:25.676Z,5.90
2019-01-19T20:58:13.600Z,7.83
2019-01-19T21:01:01.476Z,6.73
2019-01-19T21:03:49.398Z,7.93
2019-01-19T21:06:30.228Z,7.87
2019-01-19T21:09:11.173Z,8.23
2019-01-19T21:11:51.678Z,7.90
2019-01-19T21:14:32.496Z,7.90
2019-01-19T21:17:13.511Z,8.40
2019-01-19T21:19:54.243Z,8.83
2019-01-19T21:22:34.888Z,13.43
2019-01-19T21:25:15.579Z,7.77
2019-01-19T21:27:56.257Z,9.77
2019-01-19T21:30:37.279Z,9.27
2019-01-19T21:33:17.719Z,10.87
2019-01-19T21:35:58.526Z,7.50
2019-01-19T21:38:39.700Z,6.77
2019-01-19T21:41:20.400Z,11.40
2019-01-19T21:44:00.994Z,7.87
2019-01-19T21:46:42.370Z,9.87
2019-01-19T21:49:11.756Z,9.07
2019-01-19T21:52:00.147Z,9.77
2019-01-19T21:54:48.098Z,9.07
2019-01-19T21:57:36.043Z,7.70
2019-01-19T22:00:24.561Z,7.80
2019-01-19T22:03:12.473Z,9.83
2019-01-19T22:05:53.201Z,8.87
2019-01-19T22:08:34.188Z,10.87
2019-01-19T22:11:14.941Z,14.47
2019-01-19T22:13:55.832Z,14.97
2019-01-19T22:16:36.710Z,11.70
2019-01-19T22:19:17.843Z,9.10
2019-01-19T22:21:58.148Z,10.20
2019-01-19T22:24:38.947Z,10.40
2019-01-19T22:27:19.935Z,10.13
2019-01-19T22:30:00.922Z,8.77
2019-01-19T22:32:41.641Z,11.40
2019-01-19T22:35:24.139Z,8.73
2019-01-19T22:38:05.348Z,10.87
2019-01-19T22:40:45.923Z,10.67
2019-01-19T22:43:26.990Z,11.00
2019-01-19T22:46:07.946Z,10.13
2019-01-19T22:48:48.646Z,13.03
2019-01-19T22:51:29.630Z,11.27
2019-01-19T22:54:10.163Z,11.87
2019-01-19T22:56:50.798Z,10.77
2019-01-19T22:59:31.771Z,11.93
2019-01-19T23:02:12.450Z,11.87
2019-01-19T23:04:41.004Z,10.17
2019-01-19T23:07:28.911Z,9.30
2019-01-19T23:10:16.958Z,14.17
2019-01-19T23:13:04.902Z,11.10
2019-01-19T23:15:52.811Z,15.47
2019-01-19T23:18:40.704Z,14.03
2019-01-19T23:21:09.345Z,13.20
2019-01-19T23:23:57.331Z,14.80
2019-01-19T23:29:21.106Z,13.23
2019-01-19T23:31:50.393Z,12.93
2019-01-19T23:34:18.894Z,10.93
2019-01-19T23:37:06.802Z,11.23
2019-01-19T23:39:54.691Z,11.10
2019-01-19T23:42:47.110Z,12.67
2019-01-19T23:45:32.131Z,11.40
2019-01-19T23:48:20.041Z,11.27
2019-01-19T23:51:08.039Z,10.20
2019-01-19T23:53:55.926Z,10.43
2019-01-19T23:56:24.500Z,15.27
2019-01-19T23:59:12.385Z,9.53
